Ba Airport


Codes: NFFA/BFJ
Name: Ba Airport
City:
Country: Fiji
Elevation: 20 ft.

Photos at Ba Airport


   Photos courtesy of SpottingLog. You can add your own sightings and photos by signing up for a free trial today.



No photos found.

Weather at Ba Airport


Time (UTC)DescriptionTempratureWindCloud coverageVisibilityPressureHumidity
25-Jun-2024 12:00Scattered Clouds21°C4 mph, SE38%10000m1018hPa90%
25-Jun-2024 15:00Scattered Clouds21°C4 mph, S38%10000m1017hPa89%
25-Jun-2024 18:00Broken Clouds20°C4 mph, SE53%10000m1017hPa86%
25-Jun-2024 21:00Clear Sky25°C2 mph, SE7%10000m1018hPa67%
26-Jun-2024 00:00Few Clouds29°C4 mph, N11%10000m1016hPa55%
26-Jun-2024 03:00Broken Clouds27°C2 mph, NW60%10000m1013hPa65%
26-Jun-2024 06:00Broken Clouds24°C4 mph, S72%10000m1015hPa81%
26-Jun-2024 09:00Scattered Clouds22°C4 mph, SE28%10000m1017hPa89%
26-Jun-2024 12:00Few Clouds21°C4 mph, SE20%10000m1016hPa89%
26-Jun-2024 15:00Clear Sky20°C4 mph, SE0%10000m1015hPa85%
26-Jun-2024 18:00Clear Sky20°C4 mph, SE0%10000m1016hPa86%
26-Jun-2024 21:00Clear Sky25°C2 mph, SE0%10000m1017hPa66%
27-Jun-2024 00:00Clear Sky29°C4 mph, NW3%10000m1016hPa53%
27-Jun-2024 03:00Broken Clouds27°C7 mph, NW51%10000m1013hPa61%
27-Jun-2024 06:00Broken Clouds23°C2 mph, SW58%10000m1014hPa77%
27-Jun-2024 09:00Few Clouds22°C4 mph, SE17%10000m1016hPa86%
27-Jun-2024 12:00Clear Sky21°C4 mph, SE10%10000m1016hPa90%
27-Jun-2024 15:00Few Clouds21°C4 mph, S15%10000m1015hPa90%
27-Jun-2024 18:00Clear Sky21°C4 mph, SE8%10000m1016hPa91%
27-Jun-2024 21:00Clear Sky25°C2 mph, E0%10000m1017hPa71%
28-Jun-2024 00:00Few Clouds28°C4 mph, N12%10000m1015hPa62%
28-Jun-2024 03:00Light Rain26°C2 mph, NW95%10000m1014hPa76%
28-Jun-2024 06:00Light Rain24°C2 mph, SW86%10000m1015hPa87%
28-Jun-2024 09:00Few Clouds22°C2 mph, SE15%10000m1017hPa91%
28-Jun-2024 12:00Clear Sky21°C2 mph, SE8%10000m1016hPa92%
28-Jun-2024 15:00Clear Sky21°C4 mph, SE4%10000m1015hPa92%
28-Jun-2024 18:00Clear Sky21°C4 mph, SE3%10000m1015hPa90%
28-Jun-2024 21:00Clear Sky26°C2 mph, S0%10000m1017hPa69%
29-Jun-2024 00:00Clear Sky29°C4 mph, NW0%10000m1015hPa57%
29-Jun-2024 03:00Clear Sky28°C4 mph, NW5%10000m1013hPa64%
29-Jun-2024 06:00Clear Sky24°C2 mph, SW4%10000m1014hPa85%
29-Jun-2024 09:00Clear Sky23°C4 mph, SE1%10000m1016hPa89%
29-Jun-2024 12:00Light Rain22°C4 mph, SE0%10000m1015hPa91%
29-Jun-2024 15:00Clear Sky22°C4 mph, SE0%10000m1014hPa91%
29-Jun-2024 18:00Light Rain22°C4 mph, SE0%10000m1015hPa93%
29-Jun-2024 21:00Clear Sky26°C2 mph, SE0%10000m1016hPa74%
30-Jun-2024 00:00Light Rain28°C0 mph, NW7%10000m1015hPa67%
30-Jun-2024 03:00Light Rain28°C2 mph, W75%10000m1012hPa67%
30-Jun-2024 06:00Broken Clouds25°C2 mph, S67%10000m1013hPa81%
30-Jun-2024 09:00Scattered Clouds23°C4 mph, SE27%10000m1015hPa87%